createdAt,value
2023-03-22T00:02:50.002Z,101854.06
2023-03-22T00:07:58.911Z,101854.22
2023-03-22T00:13:03.230Z,101855.41
2023-03-22T00:18:07.035Z,101856.03
2023-03-22T00:23:11.103Z,101858.44
2023-03-22T00:28:16.898Z,101846.03
2023-03-22T00:33:21.101Z,101838.97
2023-03-22T00:38:41.176Z,101851.72
2023-03-22T00:43:47.506Z,101839.03
2023-03-22T00:48:51.411Z,101846.56
2023-03-22T00:53:55.612Z,101841.31
2023-03-22T00:58:59.460Z,101834.47
2023-03-22T01:04:03.783Z,101839.41
2023-03-22T01:09:07.696Z,101817.97
2023-03-22T01:14:14.759Z,101836.31
2023-03-22T01:19:18.677Z,101832.78
2023-03-22T01:24:23.075Z,101836.78
2023-03-22T01:29:27.426Z,101837.97
2023-03-22T01:34:32.306Z,101837.59
2023-03-22T01:39:37.420Z,101741.56
2023-03-22T01:44:47.952Z,101825.06
2023-03-22T01:49:52.347Z,101822.72
2023-03-22T01:54:57.636Z,101835.94
2023-03-22T02:00:19.724Z,101840.16
2023-03-22T02:05:44.935Z,101846.44
2023-03-22T02:10:49.741Z,101843.22
2023-03-22T02:16:03.873Z,101843.78
2023-03-22T02:22:14.723Z,101842.69
2023-03-22T02:27:32.982Z,101845.34
2023-03-22T02:32:52.190Z,101847.81
2023-03-22T02:38:23.623Z,101850.22
2023-03-22T02:43:42.376Z,101820.69
2023-03-22T02:49:08.808Z,101846.78
2023-03-22T02:54:31.441Z,101851.34
2023-03-22T02:59:39.437Z,101826.00
2023-03-22T03:04:49.259Z,101844.81
2023-03-22T03:09:53.909Z,101840.31
2023-03-22T03:14:58.752Z,101844.16
2023-03-22T03:20:09.251Z,101840.22
2023-03-22T03:25:47.151Z,101842.91
2023-03-22T03:31:04.219Z,101850.72
2023-03-22T03:36:13.177Z,101847.34
2023-03-22T03:41:25.014Z,101854.16
2023-03-22T03:46:29.859Z,101848.19
2023-03-22T03:51:46.361Z,101848.09
2023-03-22T03:56:51.650Z,101848.81
2023-03-22T04:01:55.809Z,101843.44
2023-03-22T04:07:06.215Z,101839.06
2023-03-22T04:12:12.785Z,101845.53
2023-03-22T04:17:18.180Z,101840.88
2023-03-22T04:22:23.725Z,101841.22
2023-03-22T04:27:28.354Z,101838.44
2023-03-22T04:32:44.499Z,101834.94
2023-03-22T04:37:49.538Z,101840.91
2023-03-22T04:42:58.441Z,101843.94
2023-03-22T04:48:15.080Z,101851.63
2023-03-22T04:53:19.217Z,101842.06
2023-03-22T04:58:24.936Z,101834.94
2023-03-22T05:03:28.986Z,101830.53
2023-03-22T05:08:33.472Z,101831.16
2023-03-22T05:13:38.557Z,101823.97
2023-03-22T05:18:46.270Z,101826.41
2023-03-22T05:23:51.567Z,101826.88
2023-03-22T05:28:57.538Z,101818.34
2023-03-22T05:34:18.372Z,101775.72
2023-03-22T05:39:23.554Z,101819.75
2023-03-22T05:44:28.680Z,101812.16
2023-03-22T05:49:44.200Z,101806.88
2023-03-22T05:54:48.620Z,101804.72
2023-03-22T05:59:54.742Z,101794.78
2023-03-22T06:05:04.958Z,101801.94
2023-03-22T06:10:14.622Z,101796.75
2023-03-22T06:15:18.749Z,101784.63
2023-03-22T06:20:36.085Z,101779.38
2023-03-22T06:25:46.866Z,101769.13
2023-03-22T06:30:52.254Z,101767.44
2023-03-22T06:36:08.776Z,101771.06
2023-03-22T06:41:22.440Z,101761.66
2023-03-22T06:46:28.276Z,101766.06
2023-03-22T06:51:42.303Z,101755.47
2023-03-22T06:56:46.386Z,101744.69
2023-03-22T07:01:50.401Z,101738.94
2023-03-22T07:06:54.666Z,101710.00
2023-03-22T07:11:59.315Z,101722.16
2023-03-22T07:17:03.543Z,101734.28
2023-03-22T07:22:07.881Z,101720.84
2023-03-22T07:27:12.776Z,101717.34
2023-03-22T07:32:16.976Z,101709.63
2023-03-22T07:37:35.047Z,101704.22
2023-03-22T07:42:48.501Z,101694.47
2023-03-22T07:48:13.641Z,101708.97
2023-03-22T07:53:34.481Z,101675.84
2023-03-22T07:58:38.422Z,101681.22
2023-03-22T08:03:42.714Z,101685.78
2023-03-22T08:09:10.306Z,101684.47
2023-03-22T08:14:15.186Z,101683.81
2023-03-22T08:19:20.513Z,101665.94
2023-03-22T08:24:25.573Z,101670.72
2023-03-22T08:29:42.090Z,101677.75
2023-03-22T08:34:46.419Z,101650.59
2023-03-22T08:39:52.464Z,101663.69
2023-03-22T08:45:00.048Z,101661.25
2023-03-22T08:50:07.647Z,101658.31
2023-03-22T08:55:27.233Z,101647.53
2023-03-22T09:00:51.693Z,101642.75
2023-03-22T09:06:03.042Z,101648.84
2023-03-22T09:11:14.976Z,101639.47
2023-03-22T09:16:20.047Z,101630.16
2023-03-22T09:21:25.119Z,101626.81
2023-03-22T09:26:34.872Z,101586.88
2023-03-22T09:31:39.366Z,101631.16
2023-03-22T09:37:03.236Z,101640.66
2023-03-22T09:42:30.338Z,101624.41
2023-03-22T09:47:45.052Z,101622.63
2023-03-22T09:52:50.577Z,101621.59
2023-03-22T09:58:03.105Z,101621.69
2023-03-22T10:03:44.953Z,101613.59
2023-03-22T10:09:10.529Z,101624.88
2023-03-22T10:14:26.308Z,101608.09
2023-03-22T10:19:56.995Z,101606.53
2023-03-22T10:25:02.151Z,101596.47
2023-03-22T10:30:27.553Z,101599.00
2023-03-22T10:35:33.523Z,101592.25
2023-03-22T10:40:38.327Z,101595.72
2023-03-22T10:45:44.161Z,101592.41
2023-03-22T10:50:48.446Z,101549.88
2023-03-22T10:55:52.564Z,101575.44
2023-03-22T11:01:05.062Z,101578.97
2023-03-22T11:06:25.921Z,101573.06
2023-03-22T11:11:33.345Z,101574.78
2023-03-22T11:16:55.305Z,101565.38
2023-03-22T11:22:00.740Z,101560.31
2023-03-22T11:27:22.163Z,101549.88
2023-03-22T11:32:30.912Z,101556.41
2023-03-22T11:37:41.383Z,101557.34
2023-03-22T11:42:47.509Z,101555.97
2023-03-22T11:47:51.720Z,101552.81
2023-03-22T11:52:57.796Z,101547.81
2023-03-22T11:58:05.039Z,101546.22
2023-03-22T12:03:17.348Z,101554.84
2023-03-22T12:08:30.151Z,101554.09
2023-03-22T12:13:41.817Z,101549.88
2023-03-22T12:18:49.901Z,101547.38
2023-03-22T12:24:00.047Z,101552.63
2023-03-22T12:29:07.955Z,101528.84
2023-03-22T12:34:24.238Z,101542.63
2023-03-22T12:40:06.701Z,101534.19
2023-03-22T12:45:19.313Z,101535.16
2023-03-22T12:50:30.302Z,101534.34
2023-03-22T12:55:40.298Z,101527.63
2023-03-22T13:00:49.714Z,101527.69
2023-03-22T13:06:03.546Z,101531.19
2023-03-22T13:11:07.483Z,101528.69
2023-03-22T13:16:11.667Z,101527.06
2023-03-22T13:21:28.109Z,101530.50
2023-03-22T13:26:48.424Z,101527.19
2023-03-22T13:31:52.436Z,101529.81
2023-03-22T13:36:58.449Z,101516.28
2023-03-22T13:42:19.800Z,101516.28
2023-03-22T13:47:37.419Z,101517.25
2023-03-22T13:53:16.560Z,101514.72
2023-03-22T13:58:46.561Z,101493.44
2023-03-22T14:03:51.465Z,101498.56
2023-03-22T14:09:14.339Z,101457.69
2023-03-22T14:14:27.225Z,101496.88
2023-03-22T14:19:42.165Z,101485.81
